createdAt,value
2023-05-13T00:01:43.306Z,6.00
2023-05-13T00:06:44.680Z,5.30
2023-05-13T00:11:46.130Z,6.22
2023-05-13T00:16:47.654Z,6.70
2023-05-13T00:21:49.119Z,6.13
2023-05-13T00:26:50.534Z,6.13
2023-05-13T00:31:51.952Z,6.40
2023-05-13T00:36:53.307Z,6.50
2023-05-13T00:41:54.659Z,6.22
2023-05-13T00:46:56.506Z,6.18
2023-05-13T00:51:57.819Z,7.63
2023-05-13T00:56:59.481Z,6.78
2023-05-13T01:02:07.059Z,6.97
2023-05-13T01:07:26.920Z,6.80
2023-05-13T01:12:33.263Z,6.38
2023-05-13T01:17:53.500Z,6.60
2023-05-13T01:22:56.599Z,7.15
2023-05-13T01:27:57.995Z,6.75
2023-05-13T01:32:59.955Z,7.07
2023-05-13T01:38:02.357Z,6.75
2023-05-13T01:43:03.961Z,6.68
2023-05-13T01:48:05.508Z,7.10
2023-05-13T01:53:06.934Z,6.38
2023-05-13T01:58:08.333Z,6.22
2023-05-13T02:03:09.839Z,6.72
2023-05-13T02:08:11.385Z,6.50
2023-05-13T02:13:13.821Z,7.72
2023-05-13T02:18:15.278Z,7.65
2023-05-13T02:23:17.519Z,7.63
2023-05-13T02:28:19.028Z,8.07
2023-05-13T02:33:20.384Z,8.27
2023-05-13T02:38:21.761Z,9.75
2023-05-13T02:43:24.767Z,9.20
2023-05-13T02:48:26.136Z,9.80
2023-05-13T02:53:28.088Z,9.98
2023-05-13T02:58:29.462Z,10.65
2023-05-13T03:03:31.016Z,11.27
2023-05-13T03:08:32.496Z,11.70
2023-05-13T03:13:33.835Z,12.18
2023-05-13T03:18:35.861Z,11.40
2023-05-13T03:23:37.629Z,11.98
2023-05-13T03:28:39.020Z,11.88
2023-05-13T03:33:40.537Z,12.77
2023-05-13T03:38:41.925Z,11.98
2023-05-13T03:43:44.264Z,12.02
2023-05-13T03:48:46.151Z,12.80
2023-05-13T03:53:47.574Z,12.05
2023-05-13T03:58:48.982Z,12.90
2023-05-13T04:03:50.433Z,10.98
2023-05-13T04:08:52.023Z,11.30
2023-05-13T04:13:53.425Z,9.60
2023-05-13T04:18:54.799Z,9.00
2023-05-13T04:23:56.162Z,8.35
2023-05-13T04:28:57.528Z,8.30
2023-05-13T04:33:58.881Z,7.57
2023-05-13T04:39:00.348Z,6.57
2023-05-13T04:44:02.492Z,7.13
2023-05-13T04:49:04.190Z,9.10
2023-05-13T04:54:05.992Z,7.15
2023-05-13T04:59:08.736Z,7.25
2023-05-13T05:04:10.232Z,6.57
2023-05-13T05:09:11.867Z,6.53
2023-05-13T05:14:13.227Z,6.93
2023-05-13T05:19:14.726Z,5.43
2023-05-13T05:24:16.586Z,5.20
2023-05-13T05:29:17.995Z,5.18
2023-05-13T05:34:19.498Z,5.22
2023-05-13T05:39:20.955Z,4.88
2023-05-13T05:44:22.341Z,5.10
2023-05-13T05:49:23.770Z,6.15
2023-05-13T05:54:25.842Z,6.28
2023-05-13T05:59:27.399Z,5.60
2023-05-13T06:04:28.835Z,5.50
2023-05-13T06:09:30.302Z,5.68
2023-05-13T06:14:31.629Z,6.20
2023-05-13T06:19:32.990Z,5.47
2023-05-13T06:24:34.363Z,5.30
2023-05-13T06:29:35.879Z,5.80
2023-05-13T06:34:39.943Z,5.18
2023-05-13T06:39:43.217Z,5.05
2023-05-13T06:44:44.600Z,5.13
2023-05-13T06:49:45.973Z,5.50
2023-05-13T06:54:47.335Z,4.55
2023-05-13T06:59:48.709Z,4.40
2023-05-13T07:04:50.110Z,4.63
2023-05-13T07:09:51.519Z,4.65
2023-05-13T07:14:52.977Z,4.03
2023-05-13T07:19:54.311Z,4.72
2023-05-13T07:24:56.106Z,7.97
2023-05-13T07:29:57.653Z,4.40
2023-05-13T07:34:59.111Z,4.22
2023-05-13T07:40:00.531Z,4.45
2023-05-13T07:45:02.128Z,4.28
2023-05-13T07:50:03.629Z,5.18
2023-05-13T07:55:05.657Z,5.07
2023-05-13T08:00:07.651Z,4.68
2023-05-13T08:05:09.447Z,5.45
2023-05-13T08:10:10.887Z,5.20
2023-05-13T08:15:14.284Z,7.55
2023-05-13T08:20:15.635Z,4.70
2023-05-13T08:25:17.069Z,4.97
2023-05-13T08:30:18.477Z,5.07
2023-05-13T08:35:20.193Z,5.28
2023-05-13T08:40:22.064Z,4.85
2023-05-13T08:45:25.894Z,4.45
2023-05-13T08:50:30.561Z,4.63
2023-05-13T08:55:32.320Z,5.05
2023-05-13T09:00:55.803Z,5.18
2023-05-13T09:06:00.293Z,6.97
2023-05-13T09:11:01.709Z,4.15
2023-05-13T09:16:03.219Z,4.18
2023-05-13T09:21:35.392Z,3.92
2023-05-13T09:26:37.073Z,3.85
2023-05-13T09:31:38.543Z,3.85
2023-05-13T09:36:40.612Z,4.35
2023-05-13T09:41:42.425Z,4.18
2023-05-13T09:46:43.855Z,4.60
2023-05-13T09:51:45.944Z,3.90
2023-05-13T09:56:47.563Z,4.85
2023-05-13T10:01:51.393Z,4.95
2023-05-13T10:06:53.648Z,3.55
2023-05-13T10:11:55.624Z,4.25
2023-05-13T10:16:58.874Z,3.42
2023-05-13T10:22:01.395Z,4.05
2023-05-13T10:32:54.531Z,4.40
2023-05-13T10:38:04.845Z,4.82
2023-05-13T10:43:12.074Z,4.82
2023-05-13T10:48:14.068Z,3.70
2023-05-13T10:53:37.089Z,3.70
2023-05-13T10:58:39.124Z,2.95
2023-05-13T11:03:40.699Z,4.53
2023-05-13T11:08:43.536Z,3.38
2023-05-13T11:13:45.059Z,3.42
2023-05-13T11:18:46.855Z,3.47
2023-05-13T11:23:58.029Z,4.30
2023-05-13T11:28:59.468Z,3.38
2023-05-13T11:34:11.214Z,3.42
2023-05-13T11:39:14.410Z,3.50
2023-05-13T11:44:17.406Z,3.72
2023-05-13T11:49:37.547Z,4.85
2023-05-13T11:54:41.995Z,4.40
2023-05-13T12:00:13.337Z,4.13
2023-05-13T12:05:14.772Z,3.20
2023-05-13T12:10:16.642Z,5.75
2023-05-13T12:15:18.825Z,3.38
2023-05-13T12:20:21.149Z,3.50
2023-05-13T12:25:32.337Z,3.08
2023-05-13T12:30:37.438Z,3.28
2023-05-13T12:35:39.042Z,3.25
2023-05-13T12:40:40.499Z,10.65
2023-05-13T12:45:44.951Z,3.55
2023-05-13T12:50:46.654Z,2.90
2023-05-13T12:55:48.203Z,2.80
2023-05-13T13:00:49.590Z,2.92
2023-05-13T13:05:51.597Z,6.85
2023-05-13T13:10:53.001Z,3.40
2023-05-13T13:15:54.395Z,3.15
2023-05-13T13:20:55.902Z,3.17
2023-05-13T13:25:59.253Z,7.85
2023-05-13T13:31:00.752Z,2.90
2023-05-13T13:36:02.177Z,3.13
2023-05-13T13:41:03.627Z,11.85
2023-05-13T13:46:05.032Z,3.78
2023-05-13T13:51:06.482Z,6.43
2023-05-13T13:56:07.958Z,3.55
2023-05-13T14:01:09.368Z,3.97
2023-05-13T14:06:10.874Z,4.00
2023-05-13T14:11:13.245Z,3.90
2023-05-13T14:16:14.629Z,4.68
2023-05-13T14:21:16.438Z,4.47
2023-05-13T14:26:18.236Z,4.93
2023-05-13T14:31:19.673Z,5.47
2023-05-13T14:36:22.435Z,10.38
2023-05-13T14:41:25.489Z,4.83
2023-05-13T14:46:27.755Z,4.25
2023-05-13T14:51:29.196Z,4.05
2023-05-13T14:56:30.660Z,3.70
2023-05-13T15:01:32.472Z,4.53
2023-05-13T15:06:34.088Z,4.22
2023-05-13T15:11:36.448Z,3.90
2023-05-13T15:16:37.862Z,3.58
2023-05-13T15:21:39.318Z,5.22
2023-05-13T15:26:40.684Z,4.43
2023-05-13T15:31:42.035Z,3.88
2023-05-13T15:36:43.393Z,3.80
2023-05-13T15:41:45.003Z,3.75
2023-05-13T15:46:48.871Z,3.35
2023-05-13T15:51:55.758Z,3.58
2023-05-13T15:57:00.264Z,2.90
2023-05-13T16:02:05.836Z,2.60
2023-05-13T16:07:11.535Z,2.42
2023-05-13T16:12:13.507Z,2.80
2023-05-13T16:17:15.030Z,2.72
2023-05-13T16:22:30.155Z,3.17
2023-05-13T16:27:32.303Z,2.90
2023-05-13T16:32:35.267Z,2.35
2023-05-13T16:37:37.124Z,3.03
2023-05-13T16:42:38.924Z,2.15
2023-05-13T16:47:40.345Z,1.90
2023-05-13T16:52:42.585Z,2.55
2023-05-13T16:57:44.323Z,2.25
2023-05-13T17:02:46.669Z,2.10
2023-05-13T17:07:48.074Z,2.15
2023-05-13T17:12:49.806Z,2.00
2023-05-13T17:17:51.399Z,2.58
2023-05-13T17:22:53.803Z,3.50
2023-05-13T17:27:57.213Z,7.45
2023-05-13T17:33:00.516Z,2.17
2023-05-13T17:38:01.861Z,2.30
2023-05-13T17:43:03.796Z,2.72
2023-05-13T17:48:05.580Z,2.92
2023-05-13T17:53:07.164Z,2.75
2023-05-13T17:58:11.241Z,2.50
2023-05-13T18:03:12.699Z,2.60
2023-05-13T18:08:14.347Z,2.30
2023-05-13T18:13:17.290Z,1.92
2023-05-13T18:18:23.826Z,2.25
2023-05-13T18:23:28.861Z,2.45
2023-05-13T18:28:32.781Z,2.28
2023-05-13T18:33:37.710Z,2.22
2023-05-13T18:38:39.896Z,2.20
2023-05-13T18:43:43.911Z,2.38
2023-05-13T18:48:50.484Z,2.40
2023-05-13T18:53:53.905Z,2.15
2023-05-13T18:58:57.367Z,2.03
2023-05-13T19:03:58.936Z,1.95
2023-05-13T19:09:00.403Z,2.13
2023-05-13T19:14:02.347Z,2.85
2023-05-13T19:19:03.849Z,3.03
2023-05-13T19:24:05.787Z,2.58
2023-05-13T19:29:07.201Z,2.50
2023-05-13T19:34:09.699Z,3.80
2023-05-13T19:39:11.079Z,2.40
2023-05-13T19:44:12.568Z,2.80
2023-05-13T19:49:14.068Z,2.20
2023-05-13T19:54:15.519Z,2.50
2023-05-13T19:59:17.702Z,3.20
2023-05-13T20:04:19.347Z,2.55
2023-05-13T20:09:21.473Z,2.45
2023-05-13T20:14:23.237Z,2.60
2023-05-13T20:19:24.666Z,3.13
2023-05-13T20:24:26.090Z,2.50
2023-05-13T20:29:27.590Z,3.03
2023-05-13T20:34:28.937Z,3.03
2023-05-13T20:39:30.397Z,2.70
2023-05-13T20:44:32.596Z,2.92
2023-05-13T20:49:34.234Z,2.67
2023-05-13T20:54:35.864Z,2.92
2023-05-13T20:59:37.453Z,3.42
2023-05-13T21:04:39.683Z,3.47
2023-05-13T21:09:41.129Z,3.70
2023-05-13T21:14:42.481Z,4.18
2023-05-13T21:19:44.376Z,3.85
2023-05-13T21:24:45.997Z,4.18
2023-05-13T21:29:47.430Z,3.92
2023-05-13T21:34:48.761Z,4.53
2023-05-13T21:39:50.167Z,4.25
2023-05-13T21:44:51.480Z,3.97
2023-05-13T21:49:52.911Z,3.67
2023-05-13T21:54:54.247Z,3.67
2023-05-13T21:59:55.656Z,3.88
2023-05-13T22:04:57.055Z,3.85
2023-05-13T22:09:58.414Z,3.90
2023-05-13T22:14:59.895Z,4.13
2023-05-13T22:20:01.608Z,3.83
2023-05-13T22:25:03.373Z,3.55
2023-05-13T22:30:05.179Z,4.07
2023-05-13T22:35:07.010Z,4.35
2023-05-13T22:40:09.290Z,5.07
2023-05-13T22:45:11.043Z,4.60
2023-05-13T22:50:12.410Z,4.60
2023-05-13T22:55:13.810Z,4.80
2023-05-13T23:00:15.733Z,4.88
2023-05-13T23:05:17.583Z,5.72
2023-05-13T23:10:18.958Z,5.50
2023-05-13T23:15:20.500Z,6.20
2023-05-13T23:20:22.166Z,5.75
2023-05-13T23:25:23.683Z,5.90
2023-05-13T23:30:25.291Z,5.50
2023-05-13T23:35:26.929Z,6.15
2023-05-13T23:40:28.265Z,6.20
2023-05-13T23:45:29.650Z,6.00
2023-05-13T23:50:31.084Z,6.20
2023-05-13T23:55:32.463Z,6.70
